METAR AND TAF INFORMATION
METAR FOR LIBG
ADDS - METARS form results

(1153 UTC 04 July 2022)
Data provider http://aviationweather.gov/metar/data/
 
Forecast for: LIBG (GROTTAGLIE(CIV/A, IT)
Text: TAF LIBG 041100Z 0412/0421 01014KT CAVOK
Forecast period: 1200 to 2100 UTC 04 July 2022
Forecast type: FROM: standard forecast or significant change
Winds: from the N (10 degrees) at 16 MPH (14 knots; 7.2 m/s)
Visibility: 6 or more miles (10+ km)
Ceiling: unknown
Clouds: missing
Weather: NSW  (no significant weather)

 AIRPORT MAP

 RUNWAY INFORMATION
Runway 17 Runway length 5610 ft Runway width 148 ft
Runway elevation 215 ft Runway displaced threshold 0 ft Runway heading 169
Runway 35 Runway length 5610 ft Runway width 148 ft
Runway elevation 195 ft Runway displaced threshold 0 ft Runway heading 349

 AIRPORT FREQUENCIES
Type APP Name APP Frequency 118.7 MHZ
Type TWR Name TWR Frequency 118.7 MHZ

 AIRPORT NEAR NAVIGATION AIDS
Type NDB Name Grottaglie Frequency 331 KHZ



Powered by Virtual Airlines Manager [v2.6.2]